worldwidewords.org alexa rank chart, worldwidewords.org alexa rank daily changes

worldwidewords.org alexa rank chart, worldwidewords.org alexa rank daily changes

worldwidewords.org
Actual rank:
182 143

RANK HISTORY

Date Rank Diff
2017/12/18 182 143 -4 048
2017/12/17 186 191 -958
2017/12/16 187 149 +5 506
2017/12/15 181 643 +1 120
2017/12/14 180 523 +553
2017/12/13 179 970 +3 579
2017/12/12 176 391 +6 292
2017/12/11 170 099 +2 180
2017/12/10 167 919 +2 079
2017/12/09 165 840 +1 852
2017/12/08 163 988 -2 684
2017/12/07 166 672 +2 953
2017/12/06 163 719 -1 914
2017/12/05 165 633 -2 450
2017/12/04 168 083 -2 929
2017/12/03 171 012 -2 826
2017/12/02 173 838 -9 070
2017/12/01 182 908 +505
2017/11/30 182 403 -1 592
2017/11/29 183 995 -1 455
2017/11/28 185 450 -1 052
2017/11/27 186 502 -2 435
2017/11/26 188 937 -729
2017/11/25 189 666 +1 617
2017/11/24 188 049 +1 706
2017/11/23 186 343 +894
2017/11/22 185 449 +34
2017/11/21 185 415 +3 614
2017/11/20 181 801 +2 995
2017/11/19 178 806 -298
2017/11/18 179 104 +4 757
2017/11/17 174 347 +2 354
2017/11/16 171 993 -7 949
2017/11/15 179 942 -1 998
2017/11/14 181 940 +982
2017/11/13 180 958 +285
2017/11/12 180 673 +3 159
2017/11/11 177 514 -1 244
2017/11/10 178 758 -1 315
2017/11/09 180 073 +60 920
2017/11/08 119 153 +18 839
2017/11/07 100 314 -382
2017/11/06 100 696 +3 230
2017/11/05 97 466 +657
2017/11/04 96 809 -998
2017/11/03 97 807 -117
2017/11/02 97 924 +40
2017/11/01 97 884 +1 402
2017/10/31 96 482 -1 218
2017/10/30 97 700 -4
2017/10/29 97 704 -50
2017/10/28 97 754 +229
2017/10/27 97 525 -551
2017/10/26 98 076 +520
2017/10/25 97 556 +767
2017/10/24 96 789 -108
2017/10/23 96 897 -679
2017/10/22 97 576 -869
2017/10/21 98 445 -463
2017/10/20 98 908 -659
2017/10/19 99 567

WIDGET FOR YOUR SITE

DOMAINS WITH THE NEAREST RANK

Domain Rank
nabzebazaar.com 182 138
sukkhi.com 182 139
tsutmb.ru 182 140
kinogo.cool 182 141
utnianos.com.ar 182 142
worldwidewords.org 182 143
bausep.de 182 144
tutulai.cn 182 145
fitnessdigital.com 182 146
eitdigital.eu 182 147
dv.land 182 148

DOMAINS WITH THE NEAREST RANK BY TLD .org

Domain Rank
mywordtemplates.org 182 090
thefactfile.org 182 124
quantum-espresso.org 182 126
plannedparenthoodaction.org 182 129
cancionmp3.org 182 132
worldwidewords.org 182 143
nazarethasd.org 182 161
java-gaming.org 182 207
oxfamamerica.org 182 208
diva-gis.org 182 220
matematiksel.org 182 222